Decoded Metar for LFBG (COGNAC in FRANCE) (IATA:CNG) | Meteo·Mobile Aviation Weather
aviador You're here:

LFBG Decoded Metar

COGNAC in FRANCE
Report Time2018-09-20 11:00:00
UTC Time2018-09-20 15:01:38
Flight Rules Old
Wind170° at 05 kt
W.Decomp.*RWY 23: 2.6 kt HW 4.3 kt LCW
RWY 26: 0.1 kt HW 5 kt LCW
W.Rank170° ranks 22
Current wind is below 170° avg. (7.6)
Visibility9999 m
Phenomena:N/A
Clouds:N/A
Expected CloudBase > 4,400 ft AGL from Temp-Dew spread
CeilingNone
Temp26°C (ISA +11)
Dew Point15°C (51% RH)
AAT25.8°C
QNH1019 hPa
Density Alt1,424 ft
Elevation102 ft
Report Wrong Elevation
Raw Report
METAR LFBG 201100Z AUTO 17005KT 100V240 CAVOK 26/15 Q1019 NOSIG=

Extra information for LFBG:More info

Metar Taf Metar & Taf Last 4 Metars F.Rules Stats Wind Profile Meteogram Temp Stats Airport Information Weather charts Add Link Nearby VenuesMetar ALERT Operation Metar Decoded Social comments